sensor_id;sensor_type;location;lat;lon;timestamp;P1;durP1;ratioP1;P2;durP2;ratioP2
3259;SDS011;68938;48.150;14.004;2023-05-29T00:00:46;7.60;;;6.53;;
3259;SDS011;68938;48.150;14.004;2023-05-29T00:03:13;7.67;;;6.63;;
3259;SDS011;68938;48.150;14.004;2023-05-29T00:05:40;8.23;;;7.03;;
3259;SDS011;68938;48.150;14.004;2023-05-29T00:08:07;7.50;;;6.80;;
3259;SDS011;68938;48.150;14.004;2023-05-29T00:10:34;9.13;;;7.07;;
3259;SDS011;68938;48.150;14.004;2023-05-29T00:13:01;8.13;;;6.70;;
3259;SDS011;68938;48.150;14.004;2023-05-29T00:15:29;8.90;;;7.90;;
3259;SDS011;68938;48.150;14.004;2023-05-29T00:17:56;8.17;;;7.47;;
3259;SDS011;68938;48.150;14.004;2023-05-29T00:20:23;7.60;;;6.90;;
3259;SDS011;68938;48.150;14.004;2023-05-29T00:22:50;9.40;;;7.43;;
3259;SDS011;68938;48.150;14.004;2023-05-29T00:25:17;9.00;;;7.67;;
3259;SDS011;68938;48.150;14.004;2023-05-29T00:27:44;11.20;;;7.80;;
3259;SDS011;68938;48.150;14.004;2023-05-29T00:30:11;8.00;;;6.90;;
3259;SDS011;68938;48.150;14.004;2023-05-29T00:32:38;9.23;;;7.83;;
3259;SDS011;68938;48.150;14.004;2023-05-29T00:35:06;7.53;;;6.43;;
3259;SDS011;68938;48.150;14.004;2023-05-29T00:37:33;11.47;;;7.17;;
3259;SDS011;68938;48.150;14.004;2023-05-29T00:40:00;13.87;;;7.50;;
3259;SDS011;68938;48.150;14.004;2023-05-29T00:42:27;11.43;;;7.77;;
3259;SDS011;68938;48.150;14.004;2023-05-29T00:44:54;8.83;;;7.93;;
3259;SDS011;68938;48.150;14.004;2023-05-29T00:47:21;9.93;;;7.63;;
3259;SDS011;68938;48.150;14.004;2023-05-29T00:49:48;9.80;;;7.37;;
3259;SDS011;68938;48.150;14.004;2023-05-29T00:52:16;11.03;;;7.67;;
3259;SDS011;68938;48.150;14.004;2023-05-29T00:54:44;8.53;;;7.20;;
3259;SDS011;68938;48.150;14.004;2023-05-29T00:57:12;11.63;;;7.07;;
3259;SDS011;68938;48.150;14.004;2023-05-29T00:59:40;11.33;;;7.03;;
3259;SDS011;68938;48.150;14.004;2023-05-29T01:02:08;7.97;;;6.43;;
3259;SDS011;68938;48.150;14.004;2023-05-29T01:04:36;8.73;;;7.83;;
3259;SDS011;68938;48.150;14.004;2023-05-29T01:07:03;8.43;;;7.27;;
3259;SDS011;68938;48.150;14.004;2023-05-29T01:09:30;8.10;;;7.30;;
3259;SDS011;68938;48.150;14.004;2023-05-29T01:17:54;10.03;;;7.40;;
3259;SDS011;68938;48.150;14.004;2023-05-29T01:20:55;7.60;;;6.90;;
3259;SDS011;68938;48.150;14.004;2023-05-29T01:28:48;12.30;;;8.50;;
3259;SDS011;68938;48.150;14.004;2023-05-29T01:31:22;11.30;;;8.10;;
3259;SDS011;68938;48.150;14.004;2023-05-29T01:33:55;9.13;;;8.20;;
3259;SDS011;68938;48.150;14.004;2023-05-29T01:36:24;9.70;;;7.93;;
3259;SDS011;68938;48.150;14.004;2023-05-29T01:38:52;8.67;;;7.63;;
3259;SDS011;68938;48.150;14.004;2023-05-29T01:41:23;10.27;;;8.10;;
3259;SDS011;68938;48.150;14.004;2023-05-29T01:43:52;8.87;;;7.87;;
3259;SDS011;68938;48.150;14.004;2023-05-29T01:46:20;9.10;;;8.03;;
3259;SDS011;68938;48.150;14.004;2023-05-29T01:48:48;13.57;;;9.80;;
3259;SDS011;68938;48.150;14.004;2023-05-29T01:51:15;8.93;;;7.43;;
3259;SDS011;68938;48.150;14.004;2023-05-29T01:53:43;8.80;;;7.77;;
3259;SDS011;68938;48.150;14.004;2023-05-29T01:56:10;12.17;;;8.37;;
3259;SDS011;68938;48.150;14.004;2023-05-29T01:58:38;11.50;;;8.70;;
3259;SDS011;68938;48.150;14.004;2023-05-29T02:01:06;9.53;;;7.50;;
3259;SDS011;68938;48.150;14.004;2023-05-29T02:03:34;9.60;;;7.83;;
3259;SDS011;68938;48.150;14.004;2023-05-29T02:06:01;9.83;;;8.03;;
3259;SDS011;68938;48.150;14.004;2023-05-29T02:08:28;10.63;;;8.67;;
3259;SDS011;68938;48.150;14.004;2023-05-29T02:10:55;9.10;;;7.50;;
3259;SDS011;68938;48.150;14.004;2023-05-29T02:13:22;12.37;;;8.30;;
3259;SDS011;68938;48.150;14.004;2023-05-29T02:15:48;11.57;;;8.17;;
3259;SDS011;68938;48.150;14.004;2023-05-29T02:18:15;9.77;;;8.60;;
3259;SDS011;68938;48.150;14.004;2023-05-29T02:20:43;12.83;;;8.70;;
3259;SDS011;68938;48.150;14.004;2023-05-29T02:23:10;13.30;;;8.17;;
3259;SDS011;68938;48.150;14.004;2023-05-29T02:25:37;11.30;;;8.37;;
3259;SDS011;68938;48.150;14.004;2023-05-29T02:28:04;9.00;;;7.83;;
3259;SDS011;68938;48.150;14.004;2023-05-29T02:30:31;10.17;;;8.17;;
3259;SDS011;68938;48.150;14.004;2023-05-29T02:32:58;12.73;;;9.97;;
3259;SDS011;68938;48.150;14.004;2023-05-29T02:35:25;14.67;;;8.83;;
3259;SDS011;68938;48.150;14.004;2023-05-29T02:37:52;8.57;;;7.70;;
3259;SDS011;68938;48.150;14.004;2023-05-29T02:40:19;10.73;;;8.10;;
3259;SDS011;68938;48.150;14.004;2023-05-29T02:42:47;8.23;;;7.43;;
3259;SDS011;68938;48.150;14.004;2023-05-29T02:45:14;9.23;;;8.40;;
3259;SDS011;68938;48.150;14.004;2023-05-29T02:47:41;10.13;;;9.03;;
3259;SDS011;68938;48.150;14.004;2023-05-29T02:50:08;15.67;;;8.97;;
3259;SDS011;68938;48.150;14.004;2023-05-29T02:52:35;9.73;;;8.20;;
3259;SDS011;68938;48.150;14.004;2023-05-29T02:55:03;11.47;;;8.23;;
3259;SDS011;68938;48.150;14.004;2023-05-29T02:57:30;9.23;;;8.30;;
3259;SDS011;68938;48.150;14.004;2023-05-29T02:59:57;9.23;;;8.30;;
3259;SDS011;68938;48.150;14.004;2023-05-29T03:02:24;9.80;;;8.13;;
3259;SDS011;68938;48.150;14.004;2023-05-29T03:04:52;12.10;;;8.60;;
3259;SDS011;68938;48.150;14.004;2023-05-29T03:07:19;9.87;;;8.80;;
3259;SDS011;68938;48.150;14.004;2023-05-29T03:09:46;9.93;;;8.60;;
3259;SDS011;68938;48.150;14.004;2023-05-29T03:12:13;11.77;;;9.87;;
3259;SDS011;68938;48.150;14.004;2023-05-29T03:14:40;9.73;;;8.70;;
3259;SDS011;68938;48.150;14.004;2023-05-29T03:17:07;11.07;;;8.83;;
3259;SDS011;68938;48.150;14.004;2023-05-29T03:19:34;9.97;;;9.03;;
3259;SDS011;68938;48.150;14.004;2023-05-29T03:22:01;10.63;;;8.37;;
3259;SDS011;68938;48.150;14.004;2023-05-29T03:24:28;10.20;;;8.13;;
3259;SDS011;68938;48.150;14.004;2023-05-29T03:26:54;8.70;;;7.80;;
3259;SDS011;68938;48.150;14.004;2023-05-29T03:29:21;9.40;;;8.03;;
3259;SDS011;68938;48.150;14.004;2023-05-29T03:31:48;9.10;;;8.20;;
3259;SDS011;68938;48.150;14.004;2023-05-29T03:34:15;9.50;;;8.50;;
3259;SDS011;68938;48.150;14.004;2023-05-29T03:36:42;8.17;;;7.37;;
3259;SDS011;68938;48.150;14.004;2023-05-29T03:39:09;8.80;;;7.90;;
3259;SDS011;68938;48.150;14.004;2023-05-29T03:41:36;9.67;;;8.70;;
3259;SDS011;68938;48.150;14.004;2023-05-29T03:44:03;9.43;;;8.37;;
3259;SDS011;68938;48.150;14.004;2023-05-29T03:46:31;14.20;;;9.23;;
3259;SDS011;68938;48.150;14.004;2023-05-29T03:48:58;9.20;;;8.00;;
3259;SDS011;68938;48.150;14.004;2023-05-29T03:51:25;8.63;;;7.73;;
3259;SDS011;68938;48.150;14.004;2023-05-29T03:53:52;9.13;;;7.90;;
3259;SDS011;68938;48.150;14.004;2023-05-29T03:56:19;9.80;;;8.00;;
3259;SDS011;68938;48.150;14.004;2023-05-29T03:58:45;10.13;;;8.70;;
3259;SDS011;68938;48.150;14.004;2023-05-29T04:01:12;31.77;;;9.07;;
3259;SDS011;68938;48.150;14.004;2023-05-29T04:03:39;12.83;;;8.10;;
3259;SDS011;68938;48.150;14.004;2023-05-29T04:06:07;12.93;;;8.70;;
3259;SDS011;68938;48.150;14.004;2023-05-29T04:08:34;11.83;;;8.23;;
3259;SDS011;68938;48.150;14.004;2023-05-29T04:11:01;10.50;;;8.50;;
3259;SDS011;68938;48.150;14.004;2023-05-29T04:13:27;12.53;;;9.73;;
3259;SDS011;68938;48.150;14.004;2023-05-29T04:15:54;12.90;;;9.73;;
3259;SDS011;68938;48.150;14.004;2023-05-29T04:18:22;9.80;;;8.67;;
3259;SDS011;68938;48.150;14.004;2023-05-29T04:20:49;12.73;;;10.60;;
3259;SDS011;68938;48.150;14.004;2023-05-29T04:23:16;11.77;;;9.60;;
3259;SDS011;68938;48.150;14.004;2023-05-29T04:25:43;11.73;;;9.87;;
3259;SDS011;68938;48.150;14.004;2023-05-29T04:28:10;10.77;;;9.43;;
3259;SDS011;68938;48.150;14.004;2023-05-29T04:30:37;12.57;;;9.03;;
3259;SDS011;68938;48.150;14.004;2023-05-29T04:33:04;10.77;;;8.20;;
3259;SDS011;68938;48.150;14.004;2023-05-29T04:35:31;13.50;;;8.30;;
3259;SDS011;68938;48.150;14.004;2023-05-29T04:37:58;10.80;;;8.90;;
3259;SDS011;68938;48.150;14.004;2023-05-29T04:40:25;10.30;;;8.40;;
3259;SDS011;68938;48.150;14.004;2023-05-29T04:42:52;10.23;;;8.23;;
3259;SDS011;68938;48.150;14.004;2023-05-29T04:45:19;12.23;;;11.00;;
3259;SDS011;68938;48.150;14.004;2023-05-29T04:47:47;17.60;;;13.77;;
3259;SDS011;68938;48.150;14.004;2023-05-29T04:50:14;15.27;;;11.77;;
3259;SDS011;68938;48.150;14.004;2023-05-29T04:52:42;11.50;;;10.10;;
3259;SDS011;68938;48.150;14.004;2023-05-29T04:55:10;10.50;;;8.63;;
3259;SDS011;68938;48.150;14.004;2023-05-29T04:57:37;9.73;;;8.27;;
3259;SDS011;68938;48.150;14.004;2023-05-29T05:00:04;10.60;;;8.83;;
3259;SDS011;68938;48.150;14.004;2023-05-29T05:02:32;10.00;;;8.17;;
3259;SDS011;68938;48.150;14.004;2023-05-29T05:04:59;10.50;;;9.43;;
3259;SDS011;68938;48.150;14.004;2023-05-29T05:07:26;11.43;;;10.30;;
3259;SDS011;68938;48.150;14.004;2023-05-29T05:09:53;10.37;;;9.27;;
3259;SDS011;68938;48.150;14.004;2023-05-29T05:12:20;11.33;;;10.07;;
3259;SDS011;68938;48.150;14.004;2023-05-29T05:14:47;9.47;;;8.57;;
3259;SDS011;68938;48.150;14.004;2023-05-29T05:17:14;9.93;;;8.87;;
3259;SDS011;68938;48.150;14.004;2023-05-29T05:19:41;13.67;;;9.30;;
3259;SDS011;68938;48.150;14.004;2023-05-29T05:22:08;11.30;;;8.73;;
3259;SDS011;68938;48.150;14.004;2023-05-29T05:24:35;9.20;;;8.40;;
3259;SDS011;68938;48.150;14.004;2023-05-29T05:27:02;9.33;;;8.00;;
3259;SDS011;68938;48.150;14.004;2023-05-29T05:29:30;13.63;;;9.17;;
3259;SDS011;68938;48.150;14.004;2023-05-29T05:31:57;12.17;;;9.03;;
3259;SDS011;68938;48.150;14.004;2023-05-29T05:34:24;11.80;;;9.40;;
3259;SDS011;68938;48.150;14.004;2023-05-29T05:36:51;10.40;;;9.27;;
3259;SDS011;68938;48.150;14.004;2023-05-29T05:39:18;11.13;;;9.77;;
3259;SDS011;68938;48.150;14.004;2023-05-29T05:41:46;10.67;;;8.83;;
3259;SDS011;68938;48.150;14.004;2023-05-29T05:44:12;11.73;;;8.90;;
3259;SDS011;68938;48.150;14.004;2023-05-29T05:46:39;12.23;;;9.57;;
3259;SDS011;68938;48.150;14.004;2023-05-29T05:49:06;10.57;;;9.47;;
3259;SDS011;68938;48.150;14.004;2023-05-29T05:51:33;13.73;;;9.00;;
3259;SDS011;68938;48.150;14.004;2023-05-29T05:54:00;10.07;;;8.97;;
3259;SDS011;68938;48.150;14.004;2023-05-29T05:56:27;9.60;;;8.60;;
3259;SDS011;68938;48.150;14.004;2023-05-29T05:58:54;10.60;;;8.60;;
3259;SDS011;68938;48.150;14.004;2023-05-29T06:01:21;12.13;;;9.20;;
3259;SDS011;68938;48.150;14.004;2023-05-29T06:03:48;10.80;;;8.77;;
3259;SDS011;68938;48.150;14.004;2023-05-29T06:06:15;10.10;;;9.10;;
3259;SDS011;68938;48.150;14.004;2023-05-29T06:08:42;9.73;;;8.27;;
3259;SDS011;68938;48.150;14.004;2023-05-29T06:11:09;9.90;;;8.90;;
3259;SDS011;68938;48.150;14.004;2023-05-29T06:13:35;11.37;;;9.40;;
3259;SDS011;68938;48.150;14.004;2023-05-29T06:16:02;11.03;;;9.90;;
3259;SDS011;68938;48.150;14.004;2023-05-29T06:18:30;11.00;;;9.40;;
3259;SDS011;68938;48.150;14.004;2023-05-29T06:20:57;10.90;;;8.50;;
3259;SDS011;68938;48.150;14.004;2023-05-29T06:23:25;10.90;;;8.93;;
3259;SDS011;68938;48.150;14.004;2023-05-29T06:25:51;10.93;;;8.93;;
3259;SDS011;68938;48.150;14.004;2023-05-29T06:28:18;9.63;;;8.73;;
3259;SDS011;68938;48.150;14.004;2023-05-29T06:30:45;9.13;;;8.20;;
3259;SDS011;68938;48.150;14.004;2023-05-29T06:33:12;10.47;;;8.90;;
3259;SDS011;68938;48.150;14.004;2023-05-29T06:35:39;11.93;;;9.40;;
3259;SDS011;68938;48.150;14.004;2023-05-29T06:38:06;9.63;;;8.67;;
3259;SDS011;68938;48.150;14.004;2023-05-29T06:40:33;8.30;;;7.50;;
3259;SDS011;68938;48.150;14.004;2023-05-29T06:43:00;10.33;;;8.00;;
3259;SDS011;68938;48.150;14.004;2023-05-29T06:45:27;10.37;;;8.50;;
3259;SDS011;68938;48.150;14.004;2023-05-29T06:47:54;11.07;;;7.90;;
3259;SDS011;68938;48.150;14.004;2023-05-29T06:50:20;10.73;;;6.73;;
3259;SDS011;68938;48.150;14.004;2023-05-29T06:52:48;10.23;;;8.03;;
3259;SDS011;68938;48.150;14.004;2023-05-29T06:55:15;9.13;;;8.23;;
3259;SDS011;68938;48.150;14.004;2023-05-29T06:57:42;15.37;;;9.20;;
3259;SDS011;68938;48.150;14.004;2023-05-29T07:00:09;8.83;;;7.93;;
3259;SDS011;68938;48.150;14.004;2023-05-29T07:02:37;9.00;;;7.87;;
3259;SDS011;68938;48.150;14.004;2023-05-29T07:05:04;12.13;;;7.60;;
3259;SDS011;68938;48.150;14.004;2023-05-29T07:07:32;11.17;;;8.00;;
3259;SDS011;68938;48.150;14.004;2023-05-29T07:09:58;8.67;;;7.80;;
3259;SDS011;68938;48.150;14.004;2023-05-29T07:12:26;9.60;;;8.60;;
3259;SDS011;68938;48.150;14.004;2023-05-29T07:14:53;13.07;;;8.10;;
3259;SDS011;68938;48.150;14.004;2023-05-29T07:17:20;8.80;;;7.93;;
3259;SDS011;68938;48.150;14.004;2023-05-29T07:19:47;7.63;;;6.73;;
3259;SDS011;68938;48.150;14.004;2023-05-29T07:22:14;8.17;;;7.33;;
3259;SDS011;68938;48.150;14.004;2023-05-29T07:24:42;8.87;;;7.97;;
3259;SDS011;68938;48.150;14.004;2023-05-29T07:27:09;9.13;;;7.00;;
3259;SDS011;68938;48.150;14.004;2023-05-29T07:29:36;11.60;;;7.33;;
3259;SDS011;68938;48.150;14.004;2023-05-29T07:32:03;7.47;;;6.70;;
3259;SDS011;68938;48.150;14.004;2023-05-29T07:34:30;10.10;;;6.97;;
3259;SDS011;68938;48.150;14.004;2023-05-29T07:39:33;9.27;;;7.50;;
3259;SDS011;68938;48.150;14.004;2023-05-29T07:42:01;9.60;;;8.17;;
3259;SDS011;68938;48.150;14.004;2023-05-29T07:44:29;11.23;;;8.00;;
3259;SDS011;68938;48.150;14.004;2023-05-29T07:46:56;8.20;;;7.40;;
3259;SDS011;68938;48.150;14.004;2023-05-29T07:49:23;7.83;;;7.03;;
3259;SDS011;68938;48.150;14.004;2023-05-29T07:51:50;11.17;;;7.50;;
3259;SDS011;68938;48.150;14.004;2023-05-29T07:54:17;9.90;;;7.67;;
3259;SDS011;68938;48.150;14.004;2023-05-29T07:56:44;10.43;;;8.13;;
3259;SDS011;68938;48.150;14.004;2023-05-29T07:59:11;12.27;;;7.53;;
3259;SDS011;68938;48.150;14.004;2023-05-29T08:01:38;7.97;;;7.17;;
3259;SDS011;68938;48.150;14.004;2023-05-29T08:04:05;7.50;;;6.70;;
3259;SDS011;68938;48.150;14.004;2023-05-29T08:06:33;6.60;;;6.10;;
3259;SDS011;68938;48.150;14.004;2023-05-29T08:09:00;6.93;;;6.23;;
3259;SDS011;68938;48.150;14.004;2023-05-29T08:11:27;8.50;;;6.67;;
3259;SDS011;68938;48.150;14.004;2023-05-29T08:13:54;7.10;;;6.50;;
3259;SDS011;68938;48.150;14.004;2023-05-29T08:16:20;10.90;;;6.50;;
3259;SDS011;68938;48.150;14.004;2023-05-29T08:18:47;7.10;;;5.80;;
3259;SDS011;68938;48.150;14.004;2023-05-29T08:21:14;6.97;;;6.27;;
3259;SDS011;68938;48.150;14.004;2023-05-29T08:23:41;7.87;;;5.90;;
3259;SDS011;68938;48.150;14.004;2023-05-29T08:26:08;6.23;;;5.57;;
3259;SDS011;68938;48.150;14.004;2023-05-29T08:28:35;5.57;;;5.07;;
3259;SDS011;68938;48.150;14.004;2023-05-29T08:31:03;7.47;;;5.40;;
3259;SDS011;68938;48.150;14.004;2023-05-29T08:33:30;5.30;;;4.90;;
3259;SDS011;68938;48.150;14.004;2023-05-29T08:35:57;6.20;;;4.40;;
3259;SDS011;68938;48.150;14.004;2023-05-29T08:38:25;5.40;;;4.90;;
3259;SDS011;68938;48.150;14.004;2023-05-29T08:40:52;6.07;;;4.93;;
3259;SDS011;68938;48.150;14.004;2023-05-29T08:43:23;5.10;;;4.60;;
3259;SDS011;68938;48.150;14.004;2023-05-29T08:45:53;6.37;;;5.07;;
3259;SDS011;68938;48.150;14.004;2023-05-29T08:48:24;5.50;;;4.80;;
3259;SDS011;68938;48.150;14.004;2023-05-29T08:50:56;7.37;;;4.60;;
3259;SDS011;68938;48.150;14.004;2023-05-29T08:53:24;4.03;;;3.73;;
3259;SDS011;68938;48.150;14.004;2023-05-29T08:55:52;7.53;;;5.03;;
3259;SDS011;68938;48.150;14.004;2023-05-29T08:58:20;4.50;;;4.17;;
3259;SDS011;68938;48.150;14.004;2023-05-29T09:00:47;5.07;;;4.67;;
3259;SDS011;68938;48.150;14.004;2023-05-29T09:03:15;5.20;;;4.60;;
3259;SDS011;68938;48.150;14.004;2023-05-29T09:05:44;5.80;;;5.30;;
3259;SDS011;68938;48.150;14.004;2023-05-29T09:08:11;4.57;;;4.17;;
3259;SDS011;68938;48.150;14.004;2023-05-29T09:10:40;5.20;;;4.63;;
3259;SDS011;68938;48.150;14.004;2023-05-29T09:13:11;7.07;;;5.00;;
3259;SDS011;68938;48.150;14.004;2023-05-29T09:15:39;5.23;;;4.73;;
3259;SDS011;68938;48.150;14.004;2023-05-29T09:18:06;3.90;;;3.60;;
3259;SDS011;68938;48.150;14.004;2023-05-29T09:20:33;4.20;;;3.80;;
3259;SDS011;68938;48.150;14.004;2023-05-29T09:23:03;4.07;;;3.70;;
3259;SDS011;68938;48.150;14.004;2023-05-29T09:25:43;6.73;;;4.60;;
3259;SDS011;68938;48.150;14.004;2023-05-29T09:28:10;5.20;;;4.70;;
3259;SDS011;68938;48.150;14.004;2023-05-29T09:30:38;4.67;;;3.80;;
3259;SDS011;68938;48.150;14.004;2023-05-29T09:33:07;5.07;;;4.30;;
3259;SDS011;68938;48.150;14.004;2023-05-29T09:35:36;4.10;;;3.80;;
3259;SDS011;68938;48.150;14.004;2023-05-29T09:38:08;5.47;;;3.97;;
3259;SDS011;68938;48.150;14.004;2023-05-29T09:40:42;5.03;;;4.10;;
3259;SDS011;68938;48.150;14.004;2023-05-29T09:43:11;5.10;;;4.70;;
3259;SDS011;68938;48.150;14.004;2023-05-29T09:45:43;6.23;;;4.40;;
3259;SDS011;68938;48.150;14.004;2023-05-29T09:48:13;4.30;;;3.90;;
3259;SDS011;68938;48.150;14.004;2023-05-29T09:50:51;4.80;;;4.40;;
3259;SDS011;68938;48.150;14.004;2023-05-29T09:53:19;4.90;;;4.40;;
3259;SDS011;68938;48.150;14.004;2023-05-29T09:55:47;5.90;;;4.60;;
3259;SDS011;68938;48.150;14.004;2023-05-29T09:58:15;5.50;;;5.03;;
3259;SDS011;68938;48.150;14.004;2023-05-29T10:00:45;4.50;;;4.10;;
3259;SDS011;68938;48.150;14.004;2023-05-29T10:03:12;5.00;;;4.50;;
3259;SDS011;68938;48.150;14.004;2023-05-29T10:05:41;4.63;;;4.23;;
3259;SDS011;68938;48.150;14.004;2023-05-29T10:08:41;5.40;;;4.90;;
3259;SDS011;68938;48.150;14.004;2023-05-29T10:11:41;5.63;;;4.40;;
3259;SDS011;68938;48.150;14.004;2023-05-29T10:14:37;4.47;;;4.03;;
3259;SDS011;68938;48.150;14.004;2023-05-29T10:17:34;4.53;;;4.10;;
3259;SDS011;68938;48.150;14.004;2023-05-29T10:20:30;4.70;;;4.20;;
3259;SDS011;68938;48.150;14.004;2023-05-29T10:23:26;5.10;;;4.70;;
3259;SDS011;68938;48.150;14.004;2023-05-29T10:26:27;6.70;;;4.43;;
3259;SDS011;68938;48.150;14.004;2023-05-29T10:32:43;5.47;;;4.50;;
3259;SDS011;68938;48.150;14.004;2023-05-29T10:39:10;5.70;;;5.20;;
3259;SDS011;68938;48.150;14.004;2023-05-29T10:42:20;6.40;;;5.27;;
3259;SDS011;68938;48.150;14.004;2023-05-29T10:48:35;4.90;;;4.50;;
3259;SDS011;68938;48.150;14.004;2023-05-29T10:51:30;5.07;;;4.63;;
3259;SDS011;68938;48.150;14.004;2023-05-29T10:54:25;6.70;;;4.97;;
3259;SDS011;68938;48.150;14.004;2023-05-29T10:57:21;8.07;;;5.70;;
3259;SDS011;68938;48.150;14.004;2023-05-29T11:00:16;6.00;;;5.40;;
3259;SDS011;68938;48.150;14.004;2023-05-29T11:03:11;6.43;;;5.13;;
3259;SDS011;68938;48.150;14.004;2023-05-29T11:06:19;5.73;;;5.23;;
3259;SDS011;68938;48.150;14.004;2023-05-29T11:12:30;5.17;;;4.50;;
3259;SDS011;68938;48.150;14.004;2023-05-29T11:15:24;7.93;;;5.80;;
3259;SDS011;68938;48.150;14.004;2023-05-29T11:18:19;5.87;;;5.37;;
3259;SDS011;68938;48.150;14.004;2023-05-29T11:21:29;6.53;;;5.93;;
3259;SDS011;68938;48.150;14.004;2023-05-29T11:24:41;10.00;;;6.60;;
3259;SDS011;68938;48.150;14.004;2023-05-29T11:27:38;6.73;;;5.97;;
3259;SDS011;68938;48.150;14.004;2023-05-29T11:31:01;6.37;;;5.30;;
3259;SDS011;68938;48.150;14.004;2023-05-29T11:34:02;5.53;;;5.03;;
3259;SDS011;68938;48.150;14.004;2023-05-29T13:43:21;6.00;;;4.63;;
3259;SDS011;68938;48.150;14.004;2023-05-29T13:46:01;5.60;;;5.10;;
3259;SDS011;68938;48.150;14.004;2023-05-29T13:48:55;4.93;;;4.53;;
3259;SDS011;68938;48.150;14.004;2023-05-29T13:51:22;5.07;;;4.67;;
3259;SDS011;68938;48.150;14.004;2023-05-29T13:53:49;4.87;;;4.47;;
3259;SDS011;68938;48.150;14.004;2023-05-29T13:56:16;5.00;;;4.60;;
3259;SDS011;68938;48.150;14.004;2023-05-29T13:58:43;5.77;;;4.40;;
3259;SDS011;68938;48.150;14.004;2023-05-29T14:01:10;5.47;;;4.70;;
3259;SDS011;68938;48.150;14.004;2023-05-29T14:03:37;4.47;;;4.17;;
3259;SDS011;68938;48.150;14.004;2023-05-29T14:06:08;7.13;;;5.10;;
3259;SDS011;68938;48.150;14.004;2023-05-29T14:08:35;5.13;;;4.30;;
3259;SDS011;68938;48.150;14.004;2023-05-29T14:11:02;5.30;;;4.80;;
3259;SDS011;68938;48.150;14.004;2023-05-29T14:13:29;5.33;;;4.83;;
3259;SDS011;68938;48.150;14.004;2023-05-29T14:15:56;4.63;;;4.33;;
3259;SDS011;68938;48.150;14.004;2023-05-29T14:18:23;5.73;;;5.23;;
3259;SDS011;68938;48.150;14.004;2023-05-29T14:20:50;5.03;;;4.57;;
3259;SDS011;68938;48.150;14.004;2023-05-29T14:23:17;4.67;;;4.37;;
3259;SDS011;68938;48.150;14.004;2023-05-29T14:25:45;4.90;;;4.50;;
3259;SDS011;68938;48.150;14.004;2023-05-29T14:28:12;5.00;;;4.60;;
3259;SDS011;68938;48.150;14.004;2023-05-29T14:30:39;5.40;;;4.90;;
3259;SDS011;68938;48.150;14.004;2023-05-29T14:33:06;5.37;;;4.70;;
3259;SDS011;68938;48.150;14.004;2023-05-29T14:35:32;5.27;;;4.73;;
3259;SDS011;68938;48.150;14.004;2023-05-29T14:37:59;5.50;;;5.00;;
3259;SDS011;68938;48.150;14.004;2023-05-29T14:40:27;5.57;;;5.07;;
3259;SDS011;68938;48.150;14.004;2023-05-29T14:42:54;7.00;;;5.13;;
3259;SDS011;68938;48.150;14.004;2023-05-29T14:45:21;4.73;;;4.10;;
3259;SDS011;68938;48.150;14.004;2023-05-29T14:47:48;5.90;;;5.37;;
3259;SDS011;68938;48.150;14.004;2023-05-29T14:50:15;5.17;;;4.60;;
3259;SDS011;68938;48.150;14.004;2023-05-29T14:52:42;5.73;;;5.10;;
3259;SDS011;68938;48.150;14.004;2023-05-29T14:55:09;6.10;;;4.80;;
3259;SDS011;68938;48.150;14.004;2023-05-29T14:57:36;5.40;;;4.97;;
3259;SDS011;68938;48.150;14.004;2023-05-29T15:00:03;5.27;;;4.77;;
3259;SDS011;68938;48.150;14.004;2023-05-29T15:02:32;5.63;;;5.13;;
3259;SDS011;68938;48.150;14.004;2023-05-29T15:04:59;5.50;;;5.00;;
3259;SDS011;68938;48.150;14.004;2023-05-29T15:07:26;4.50;;;4.10;;
3259;SDS011;68938;48.150;14.004;2023-05-29T15:09:53;5.60;;;5.10;;
3259;SDS011;68938;48.150;14.004;2023-05-29T15:12:20;7.27;;;5.10;;
3259;SDS011;68938;48.150;14.004;2023-05-29T15:14:47;5.67;;;5.17;;
3259;SDS011;68938;48.150;14.004;2023-05-29T15:17:16;7.63;;;5.03;;
3259;SDS011;68938;48.150;14.004;2023-05-29T15:19:43;7.50;;;5.40;;
3259;SDS011;68938;48.150;14.004;2023-05-29T15:22:10;6.40;;;4.80;;
3259;SDS011;68938;48.150;14.004;2023-05-29T15:24:37;5.40;;;4.90;;
3259;SDS011;68938;48.150;14.004;2023-05-29T15:27:04;5.03;;;4.53;;
3259;SDS011;68938;48.150;14.004;2023-05-29T15:29:35;5.47;;;5.07;;
3259;SDS011;68938;48.150;14.004;2023-05-29T15:32:03;5.40;;;5.00;;
3259;SDS011;68938;48.150;14.004;2023-05-29T15:34:30;6.73;;;5.47;;
3259;SDS011;68938;48.150;14.004;2023-05-29T15:36:57;5.60;;;5.20;;
3259;SDS011;68938;48.150;14.004;2023-05-29T15:39:24;5.20;;;4.80;;
3259;SDS011;68938;48.150;14.004;2023-05-29T15:41:51;5.73;;;5.23;;
3259;SDS011;68938;48.150;14.004;2023-05-29T15:44:18;5.97;;;5.37;;
3259;SDS011;68938;48.150;14.004;2023-05-29T15:46:45;5.23;;;4.83;;
3259;SDS011;68938;48.150;14.004;2023-05-29T15:49:12;5.93;;;4.70;;
3259;SDS011;68938;48.150;14.004;2023-05-29T15:51:39;5.00;;;4.60;;
3259;SDS011;68938;48.150;14.004;2023-05-29T15:54:06;6.10;;;5.07;;
3259;SDS011;68938;48.150;14.004;2023-05-29T15:56:33;4.77;;;4.37;;
3259;SDS011;68938;48.150;14.004;2023-05-29T15:59:00;5.40;;;4.90;;
3259;SDS011;68938;48.150;14.004;2023-05-29T16:01:27;5.57;;;5.07;;
3259;SDS011;68938;48.150;14.004;2023-05-29T16:03:54;4.63;;;3.80;;
3259;SDS011;68938;48.150;14.004;2023-05-29T16:06:21;4.53;;;4.23;;
3259;SDS011;68938;48.150;14.004;2023-05-29T16:08:48;4.57;;;4.17;;
3259;SDS011;68938;48.150;14.004;2023-05-29T16:11:15;5.10;;;4.70;;
3259;SDS011;68938;48.150;14.004;2023-05-29T16:13:41;5.03;;;4.53;;
3259;SDS011;68938;48.150;14.004;2023-05-29T16:16:08;4.50;;;4.20;;
3259;SDS011;68938;48.150;14.004;2023-05-29T16:18:35;3.87;;;3.67;;
3259;SDS011;68938;48.150;14.004;2023-05-29T16:21:02;5.30;;;4.93;;
3259;SDS011;68938;48.150;14.004;2023-05-29T16:23:29;4.77;;;4.37;;
3259;SDS011;68938;48.150;14.004;2023-05-29T16:25:57;4.57;;;4.27;;
3259;SDS011;68938;48.150;14.004;2023-05-29T16:28:23;4.50;;;4.20;;
3259;SDS011;68938;48.150;14.004;2023-05-29T16:30:51;4.13;;;3.83;;
3259;SDS011;68938;48.150;14.004;2023-05-29T16:33:18;4.83;;;4.47;;
3259;SDS011;68938;48.150;14.004;2023-05-29T16:35:45;4.30;;;3.90;;
3259;SDS011;68938;48.150;14.004;2023-05-29T16:38:12;5.00;;;4.30;;
3259;SDS011;68938;48.150;14.004;2023-05-29T16:40:39;4.23;;;3.90;;
3259;SDS011;68938;48.150;14.004;2023-05-29T16:43:05;4.33;;;4.03;;
3259;SDS011;68938;48.150;14.004;2023-05-29T16:45:32;4.53;;;4.23;;
3259;SDS011;68938;48.150;14.004;2023-05-29T16:47:59;4.57;;;4.20;;
3259;SDS011;68938;48.150;14.004;2023-05-29T16:50:26;4.37;;;3.97;;
3259;SDS011;68938;48.150;14.004;2023-05-29T16:52:53;4.60;;;4.30;;
3259;SDS011;68938;48.150;14.004;2023-05-29T16:55:20;5.10;;;4.57;;
3259;SDS011;68938;48.150;14.004;2023-05-29T16:57:47;4.60;;;4.27;;
3259;SDS011;68938;48.150;14.004;2023-05-29T17:00:14;5.17;;;4.67;;
3259;SDS011;68938;48.150;14.004;2023-05-29T17:02:41;6.13;;;4.33;;
3259;SDS011;68938;48.150;14.004;2023-05-29T17:05:08;5.30;;;4.77;;
3259;SDS011;68938;48.150;14.004;2023-05-29T17:07:35;4.93;;;4.47;;
3259;SDS011;68938;48.150;14.004;2023-05-29T17:10:02;5.97;;;5.37;;
3259;SDS011;68938;48.150;14.004;2023-05-29T17:12:30;4.33;;;4.03;;
3259;SDS011;68938;48.150;14.004;2023-05-29T17:14:56;6.67;;;4.87;;
3259;SDS011;68938;48.150;14.004;2023-05-29T17:17:23;5.30;;;4.87;;
3259;SDS011;68938;48.150;14.004;2023-05-29T17:19:51;4.53;;;4.13;;
3259;SDS011;68938;48.150;14.004;2023-05-29T17:22:18;5.97;;;5.33;;
3259;SDS011;68938;48.150;14.004;2023-05-29T17:24:45;4.53;;;4.20;;
3259;SDS011;68938;48.150;14.004;2023-05-29T17:27:12;4.47;;;4.17;;
3259;SDS011;68938;48.150;14.004;2023-05-29T17:29:39;5.17;;;4.77;;
3259;SDS011;68938;48.150;14.004;2023-05-29T17:32:06;5.30;;;4.90;;